createdAt,value
2018-10-11T00:00:57.608Z,74.70
2018-10-11T00:03:25.767Z,74.96
2018-10-11T00:05:53.911Z,75.09
2018-10-11T00:08:22.080Z,74.16
2018-10-11T00:10:50.225Z,73.93
2018-10-11T00:13:18.412Z,74.75
2018-10-11T00:15:46.620Z,73.86
2018-10-11T00:18:14.774Z,74.94
2018-10-11T00:20:42.960Z,74.15
2018-10-11T00:23:11.163Z,74.79
2018-10-11T00:25:39.347Z,74.39
2018-10-11T00:28:07.516Z,74.70
2018-10-11T00:30:35.822Z,74.12
2018-10-11T00:33:03.931Z,74.55
2018-10-11T00:35:32.094Z,74.70
2018-10-11T00:38:00.515Z,74.74
2018-10-11T00:40:28.681Z,73.77
2018-10-11T00:42:56.859Z,74.25
2018-10-11T00:45:25.024Z,74.40
2018-10-11T00:47:53.305Z,74.37
2018-10-11T00:50:21.457Z,73.57
2018-10-11T00:52:49.639Z,73.90
2018-10-11T00:55:17.807Z,74.61
2018-10-11T00:57:45.963Z,73.73
2018-10-11T01:00:14.208Z,73.90
2018-10-11T01:02:42.393Z,74.00
2018-10-11T01:05:10.542Z,74.04
2018-10-11T01:07:38.830Z,74.40
2018-10-11T01:10:07.119Z,73.88
2018-10-11T01:12:35.245Z,74.67
2018-10-11T01:15:03.503Z,74.52
2018-10-11T01:17:31.663Z,74.27
2018-10-11T01:19:59.823Z,72.87
2018-10-11T01:22:28.027Z,73.17
2018-10-11T01:24:56.221Z,73.77
2018-10-11T01:27:24.423Z,73.03
2018-10-11T01:29:52.628Z,73.47
2018-10-11T01:32:20.799Z,73.89
2018-10-11T01:34:48.967Z,73.16
2018-10-11T01:37:17.191Z,73.19
2018-10-11T01:39:45.427Z,73.85
2018-10-11T01:42:13.568Z,73.30
2018-10-11T01:44:41.739Z,73.02
2018-10-11T01:47:09.907Z,73.76
2018-10-11T01:49:38.143Z,73.02
2018-10-11T01:52:06.354Z,73.51
2018-10-11T01:54:34.521Z,73.20
2018-10-11T01:57:02.724Z,73.26
2018-10-11T01:59:31.037Z,73.19
2018-10-11T02:01:59.241Z,73.56
2018-10-11T02:04:27.587Z,73.57
2018-10-11T02:06:55.843Z,73.67
2018-10-11T02:09:24.281Z,74.21
2018-10-11T02:11:52.482Z,74.52
2018-10-11T02:14:20.695Z,73.69
2018-10-11T02:16:48.902Z,74.15
2018-10-11T02:19:17.062Z,73.61
2018-10-11T02:21:45.228Z,73.97
2018-10-11T02:24:13.423Z,74.10
2018-10-11T02:26:41.609Z,74.25
2018-10-11T02:29:10.198Z,74.29
2018-10-11T02:31:38.365Z,74.84
2018-10-11T02:34:06.531Z,74.66
2018-10-11T02:36:34.727Z,75.11
2018-10-11T02:39:02.947Z,75.10
2018-10-11T02:41:31.132Z,74.84
2018-10-11T02:43:59.283Z,75.73
2018-10-11T02:46:27.507Z,75.66
2018-10-11T02:48:55.726Z,75.94
2018-10-11T02:51:23.978Z,75.11
2018-10-11T02:53:52.407Z,75.28
2018-10-11T02:56:22.063Z,75.77
2018-10-11T02:59:01.563Z,75.35
2018-10-11T03:01:29.811Z,75.82
2018-10-11T03:04:01.735Z,75.22
2018-10-11T03:06:29.965Z,75.14
2018-10-11T03:08:58.159Z,75.84
2018-10-11T03:11:26.356Z,75.85
2018-10-11T03:13:54.507Z,75.54
2018-10-11T03:16:22.659Z,75.53
2018-10-11T03:18:50.828Z,76.16
2018-10-11T03:21:19.570Z,75.36
2018-10-11T03:23:47.750Z,75.96
2018-10-11T03:26:15.938Z,75.27
2018-10-11T03:28:44.089Z,76.06
2018-10-11T03:31:12.250Z,75.36
2018-10-11T03:33:40.431Z,75.97
2018-10-11T03:36:08.683Z,75.63
2018-10-11T03:38:36.851Z,76.51
2018-10-11T03:41:05.023Z,76.22
2018-10-11T03:43:33.187Z,76.06
2018-10-11T03:46:01.383Z,76.24
2018-10-11T03:48:29.541Z,76.53
2018-10-11T03:50:57.717Z,76.25
2018-10-11T03:53:25.912Z,76.29
2018-10-11T03:55:54.143Z,76.22
2018-10-11T03:58:22.355Z,75.80
2018-10-11T04:00:50.551Z,75.55
2018-10-11T04:03:18.741Z,75.79
2018-10-11T04:05:46.914Z,75.46
2018-10-11T04:08:15.090Z,76.21
2018-10-11T04:10:43.297Z,75.70
2018-10-11T04:13:11.723Z,76.19
2018-10-11T04:15:39.954Z,75.96
2018-10-11T04:18:08.116Z,76.16
2018-10-11T04:20:36.284Z,75.74
2018-10-11T04:23:04.676Z,76.47
2018-10-11T04:25:32.852Z,75.58
2018-10-11T04:28:01.026Z,75.68
2018-10-11T04:30:29.222Z,75.77
2018-10-11T04:32:57.987Z,76.00
2018-10-11T04:35:26.556Z,75.83
2018-10-11T04:37:54.772Z,75.93
2018-10-11T04:40:22.940Z,75.93
2018-10-11T04:42:51.167Z,76.79
2018-10-11T04:45:19.293Z,76.25
2018-10-11T04:47:47.635Z,76.46
2018-10-11T04:50:15.823Z,76.26
2018-10-11T04:52:44.216Z,76.25
2018-10-11T04:55:12.396Z,76.03
2018-10-11T04:57:40.585Z,75.95
2018-10-11T05:00:15.422Z,75.91
2018-10-11T05:02:43.612Z,76.66
2018-10-11T05:05:11.797Z,76.47
2018-10-11T05:07:39.966Z,76.20
2018-10-11T05:10:08.174Z,75.50
2018-10-11T05:12:36.504Z,76.51
2018-10-11T05:15:04.860Z,75.96
2018-10-11T05:17:33.652Z,76.73
2018-10-11T05:20:01.899Z,77.04
2018-10-11T05:22:30.058Z,76.82
2018-10-11T05:24:58.331Z,76.69
2018-10-11T05:27:26.575Z,76.30
2018-10-11T05:29:54.747Z,76.68
2018-10-11T05:32:22.991Z,76.40
2018-10-11T05:34:51.204Z,76.43
2018-10-11T05:37:19.438Z,77.19
2018-10-11T05:39:47.694Z,76.64
2018-10-11T05:42:22.509Z,77.37
2018-10-11T05:44:51.047Z,77.67
2018-10-11T05:47:19.245Z,76.86
2018-10-11T05:49:47.470Z,78.17
2018-10-11T05:52:15.755Z,77.46
2018-10-11T05:54:44.092Z,77.89
2018-10-11T05:57:12.268Z,77.92
2018-10-11T05:59:40.440Z,78.26
2018-10-11T06:02:08.811Z,77.46
2018-10-11T06:04:37.300Z,77.78
2018-10-11T06:07:05.717Z,77.51
2018-10-11T06:09:33.896Z,77.63
2018-10-11T06:12:02.159Z,77.73
2018-10-11T06:14:30.227Z,77.77
2018-10-11T06:16:58.387Z,77.47
2018-10-11T06:19:26.567Z,77.35
2018-10-11T06:21:54.726Z,76.91
2018-10-11T06:24:22.887Z,76.29
2018-10-11T06:26:51.072Z,76.40
2018-10-11T06:29:25.827Z,75.99
2018-10-11T06:31:54.026Z,75.99
2018-10-11T06:34:22.208Z,76.46
2018-10-11T06:36:50.381Z,75.99
2018-10-11T06:39:18.575Z,76.64
2018-10-11T06:41:46.761Z,77.04
2018-10-11T06:44:14.915Z,76.57
2018-10-11T06:46:43.088Z,77.00
2018-10-11T06:49:11.258Z,76.07
2018-10-11T06:51:39.431Z,75.56
2018-10-11T06:54:07.615Z,75.73
2018-10-11T06:56:35.791Z,76.75
2018-10-11T06:59:03.955Z,75.75
2018-10-11T07:01:32.145Z,75.86
2018-10-11T07:04:00.300Z,76.03
2018-10-11T07:06:28.831Z,76.11
2018-10-11T07:08:56.971Z,76.34
2018-10-11T07:11:25.129Z,76.16
2018-10-11T07:13:53.297Z,76.73
2018-10-11T07:16:21.463Z,75.83
2018-10-11T07:18:49.838Z,76.72
2018-10-11T07:21:17.999Z,76.28
2018-10-11T07:23:46.159Z,75.96
2018-10-11T07:26:14.348Z,76.28
2018-10-11T07:28:42.528Z,76.43
2018-10-11T07:31:10.678Z,75.09
2018-10-11T07:33:38.842Z,75.77
2018-10-11T07:36:07.016Z,75.04
2018-10-11T07:38:35.179Z,75.87
2018-10-11T07:41:03.398Z,75.55
2018-10-11T07:43:31.645Z,75.13
2018-10-11T07:45:59.790Z,75.96
2018-10-11T07:48:27.964Z,75.91
2018-10-11T07:50:56.146Z,74.90
2018-10-11T07:53:24.319Z,75.87
2018-10-11T07:55:52.470Z,74.71
2018-10-11T07:58:20.627Z,75.06
2018-10-11T08:00:48.883Z,74.85
2018-10-11T08:03:17.067Z,74.98
2018-10-11T08:05:45.219Z,75.20
2018-10-11T08:08:13.423Z,75.49
2018-10-11T08:10:41.879Z,74.71
2018-10-11T08:13:09.719Z,75.04
2018-10-11T08:15:37.898Z,75.02
2018-10-11T08:18:06.576Z,74.00
2018-10-11T08:20:34.959Z,75.02
2018-10-11T08:23:03.023Z,74.49
2018-10-11T08:25:31.618Z,74.11
2018-10-11T08:27:59.351Z,74.30
2018-10-11T08:30:27.591Z,74.00
2018-10-11T08:32:55.792Z,73.77
2018-10-11T08:35:23.909Z,74.67
2018-10-11T08:37:52.242Z,73.87
2018-10-11T08:40:20.668Z,73.69
2018-10-11T08:42:48.440Z,73.93
2018-10-11T08:45:16.600Z,74.72
2018-10-11T08:47:44.769Z,74.34
2018-10-11T08:50:12.998Z,73.72
2018-10-11T08:52:41.121Z,72.76
2018-10-11T08:55:09.289Z,72.52
2018-10-11T08:57:37.457Z,73.13
2018-10-11T09:00:06.636Z,72.46
2018-10-11T09:02:34.832Z,72.59
2018-10-11T09:05:03.041Z,73.54
2018-10-11T09:07:31.169Z,72.28
2018-10-11T09:09:59.382Z,72.20
2018-10-11T09:12:27.542Z,72.86
2018-10-11T09:14:55.711Z,72.98
2018-10-11T09:17:23.936Z,73.27
2018-10-11T09:19:52.047Z,72.02
2018-10-11T09:22:20.211Z,72.04
2018-10-11T09:24:48.538Z,72.87
2018-10-11T09:27:16.704Z,71.89
2018-10-11T09:29:44.876Z,72.33
2018-10-11T09:32:13.018Z,71.62
2018-10-11T09:34:41.190Z,71.91
2018-10-11T09:37:09.336Z,71.90
2018-10-11T09:39:37.538Z,71.05
2018-10-11T09:42:05.844Z,70.59
2018-10-11T09:44:33.990Z,70.43
2018-10-11T09:47:02.144Z,70.46
2018-10-11T09:49:30.327Z,69.59
2018-10-11T09:51:58.521Z,70.37
2018-10-11T09:54:26.808Z,69.26
2018-10-11T09:57:15.248Z,68.62
2018-10-11T09:59:43.475Z,68.27
2018-10-11T10:02:12.524Z,68.76
2018-10-11T10:04:45.103Z,68.43
2018-10-11T10:07:13.482Z,68.01
2018-10-11T10:09:42.498Z,67.35
2018-10-11T10:12:11.244Z,68.24
2018-10-11T10:14:40.033Z,66.62
2018-10-11T10:17:08.251Z,67.38
2018-10-11T10:19:36.427Z,65.60
2018-10-11T10:22:04.991Z,66.40
2018-10-11T10:24:33.563Z,65.54
2018-10-11T10:27:01.773Z,65.68
2018-10-11T10:29:29.904Z,65.24
2018-10-11T10:31:58.579Z,65.80
2018-10-11T10:34:26.992Z,65.21
2018-10-11T10:36:55.175Z,65.08
2018-10-11T10:39:23.822Z,64.11
2018-10-11T10:41:51.975Z,63.78
2018-10-11T10:44:20.170Z,64.65
2018-10-11T10:46:48.433Z,64.82
2018-10-11T10:49:16.571Z,64.76
2018-10-11T10:51:44.727Z,62.41
2018-10-11T10:54:18.285Z,63.05
2018-10-11T10:56:46.374Z,62.06
2018-10-11T10:59:14.554Z,62.94
2018-10-11T11:01:42.732Z,62.17
2018-10-11T11:04:10.888Z,62.21
2018-10-11T11:06:39.072Z,61.42
2018-10-11T11:09:09.329Z,62.19
2018-10-11T11:11:37.751Z,62.18
2018-10-11T11:14:05.951Z,62.35
2018-10-11T11:16:34.107Z,62.05
2018-10-11T11:19:02.340Z,61.30
2018-10-11T11:21:30.476Z,61.76
2018-10-11T11:23:58.672Z,61.48
2018-10-11T11:26:26.928Z,61.90
2018-10-11T11:28:55.140Z,62.35
2018-10-11T11:31:23.303Z,60.85
2018-10-11T11:33:51.511Z,60.88
2018-10-11T11:36:20.307Z,61.10
2018-10-11T11:38:48.504Z,60.92
2018-10-11T11:41:17.189Z,61.19
2018-10-11T11:43:45.363Z,59.99
2018-10-11T11:46:13.531Z,60.39
2018-10-11T11:48:41.810Z,62.19
2018-10-11T11:51:11.190Z,61.59
2018-10-11T11:53:40.310Z,60.69
2018-10-11T11:56:08.571Z,62.13
2018-10-11T11:58:37.045Z,60.64
2018-10-11T12:01:05.214Z,61.32
2018-10-11T12:03:33.379Z,61.60
2018-10-11T12:06:01.668Z,59.51
2018-10-11T12:08:32.504Z,59.98
2018-10-11T12:11:00.788Z,60.86
2018-10-11T12:13:29.022Z,60.39
2018-10-11T12:15:57.218Z,59.70
2018-10-11T12:18:25.451Z,59.66
2018-10-11T12:20:53.715Z,59.57
2018-10-11T12:23:22.073Z,59.76
2018-10-11T12:25:50.322Z,60.21
2018-10-11T12:28:19.185Z,60.28
2018-10-11T12:30:47.487Z,60.39
2018-10-11T12:33:15.752Z,60.50
2018-10-11T12:35:43.952Z,59.26
2018-10-11T12:38:12.368Z,60.19
2018-10-11T12:40:40.771Z,59.00
2018-10-11T12:43:09.507Z,59.98
2018-10-11T12:45:38.073Z,59.98
2018-10-11T12:48:05.974Z,58.80
2018-10-11T12:50:34.418Z,59.96
2018-10-11T12:53:02.815Z,60.05
2018-10-11T12:55:31.016Z,60.77
2018-10-11T12:57:59.211Z,61.30
2018-10-11T13:00:27.397Z,61.18
2018-10-11T13:02:55.792Z,60.70
2018-10-11T13:05:23.979Z,62.38
2018-10-11T13:07:52.241Z,62.19
2018-10-11T13:10:20.465Z,62.35
2018-10-11T13:12:48.814Z,61.41
2018-10-11T13:15:17.113Z,62.69
2018-10-11T13:17:45.295Z,62.21
2018-10-11T13:20:13.456Z,61.75
2018-10-11T13:22:41.610Z,61.15
2018-10-11T13:25:09.758Z,62.49
2018-10-11T13:27:38.110Z,63.17
2018-10-11T13:30:06.356Z,63.09
2018-10-11T13:32:34.571Z,63.72
2018-10-11T13:35:02.930Z,62.44
2018-10-11T13:37:31.226Z,61.74
2018-10-11T13:39:59.419Z,62.60
2018-10-11T13:42:27.629Z,62.43
2018-10-11T13:44:55.984Z,62.30
2018-10-11T13:47:24.352Z,62.20
2018-10-11T13:49:52.455Z,63.48
2018-10-11T13:52:22.512Z,61.83
2018-10-11T13:54:49.217Z,63.10
2018-10-11T13:57:17.472Z,62.59
2018-10-11T13:59:45.711Z,62.67
2018-10-11T14:02:13.977Z,62.57
2018-10-11T14:04:42.287Z,62.43
2018-10-11T14:07:10.684Z,62.90
2018-10-11T14:09:39.136Z,63.36
2018-10-11T14:12:07.414Z,62.77
2018-10-11T14:14:37.621Z,63.23
2018-10-11T14:17:05.803Z,63.82
2018-10-11T14:19:33.958Z,64.24
2018-10-11T14:22:02.231Z,63.24
2018-10-11T14:24:30.871Z,62.82
2018-10-11T14:26:59.415Z,63.02
2018-10-11T14:29:27.557Z,63.22
2018-10-11T14:31:56.009Z,64.30
2018-10-11T14:34:27.221Z,63.75
2018-10-11T14:36:55.829Z,64.54
2018-10-11T14:39:25.310Z,64.23
2018-10-11T14:41:53.547Z,64.12
2018-10-11T14:44:21.780Z,63.04
2018-10-11T14:46:50.057Z,62.92
2018-10-11T14:49:18.285Z,63.04
2018-10-11T14:51:48.723Z,63.71
2018-10-11T14:54:14.819Z,62.70
2018-10-11T14:56:43.151Z,62.92
2018-10-11T14:59:13.199Z,63.90
2018-10-11T15:01:42.807Z,63.48
2018-10-11T15:04:16.407Z,63.88
2018-10-11T15:06:49.102Z,63.45
2018-10-11T15:09:21.879Z,64.36
2018-10-11T15:11:51.304Z,64.15
2018-10-11T15:14:21.809Z,63.27
2018-10-11T15:16:53.869Z,63.58
2018-10-11T15:19:24.714Z,64.30
2018-10-11T15:21:55.202Z,63.44
2018-10-11T15:24:25.328Z,64.43
2018-10-11T15:26:56.402Z,64.61
2018-10-11T15:29:26.193Z,64.98
2018-10-11T15:31:55.410Z,64.55
2018-10-11T15:34:26.422Z,65.10
2018-10-11T15:36:59.101Z,64.24
2018-10-11T15:39:29.337Z,64.89
2018-10-11T15:42:01.198Z,64.83
2018-10-11T15:44:31.673Z,64.54
2018-10-11T15:47:01.965Z,65.24
2018-10-11T15:49:32.896Z,64.75
2018-10-11T15:52:03.768Z,63.95
2018-10-11T15:54:33.930Z,64.93
2018-10-11T15:57:03.641Z,64.32
2018-10-11T15:59:34.244Z,64.37
2018-10-11T16:02:04.416Z,64.28
2018-10-11T16:04:34.613Z,64.21
2018-10-11T16:07:06.991Z,64.13
2018-10-11T16:09:37.314Z,64.03
2018-10-11T16:12:07.353Z,64.93
2018-10-11T16:14:38.483Z,64.57
2018-10-11T16:17:09.304Z,64.33
2018-10-11T16:19:42.240Z,64.05
2018-10-11T16:22:12.436Z,65.02
2018-10-11T16:24:41.786Z,64.31
2018-10-11T16:27:14.432Z,65.51
2018-10-11T16:29:45.327Z,64.70
2018-10-11T16:32:14.888Z,65.37
2018-10-11T16:34:44.542Z,65.91
2018-10-11T16:37:15.184Z,65.67
2018-10-11T16:39:45.403Z,65.81
2018-10-11T16:42:17.848Z,66.07
2018-10-11T16:44:52.359Z,65.40
2018-10-11T16:47:22.646Z,65.40
2018-10-11T16:49:53.684Z,65.37
2018-10-11T16:52:24.251Z,65.94
2018-10-11T16:54:53.898Z,66.62
2018-10-11T16:57:23.624Z,65.72
2018-10-11T16:59:54.763Z,66.62
2018-10-11T17:02:24.948Z,66.37
2018-10-11T17:04:59.144Z,66.34
2018-10-11T17:07:28.907Z,67.14
2018-10-11T17:09:58.351Z,67.07
2018-10-11T17:12:30.065Z,66.89
2018-10-11T17:15:00.087Z,66.68
2018-10-11T17:17:32.269Z,66.48
2018-10-11T17:20:05.883Z,66.95
2018-10-11T17:22:36.689Z,66.06
2018-10-11T17:25:06.687Z,66.03
2018-10-11T17:27:37.573Z,66.07
2018-10-11T17:30:07.238Z,66.93
2018-10-11T17:32:37.673Z,66.49
2018-10-11T17:37:55.172Z,66.20
2018-10-11T17:40:23.652Z,66.40
2018-10-11T17:42:51.902Z,66.28
2018-10-11T17:45:20.561Z,66.96
2018-10-11T17:47:53.840Z,66.39
2018-10-11T17:50:24.686Z,66.69
2018-10-11T17:52:52.808Z,66.64
2018-10-11T17:55:22.462Z,66.06
2018-10-11T17:57:51.637Z,67.10
2018-10-11T18:00:22.864Z,65.79
2018-10-11T18:02:51.119Z,66.46
2018-10-11T18:05:24.626Z,67.71
2018-10-11T18:07:52.933Z,67.20
2018-10-11T18:10:21.117Z,67.52
2018-10-11T18:12:49.343Z,67.24
2018-10-11T18:15:17.491Z,68.12
2018-10-11T18:17:47.689Z,67.60
2018-10-11T18:20:23.413Z,68.25
2018-10-11T18:22:51.583Z,68.44
2018-10-11T18:25:26.001Z,68.27
2018-10-11T18:27:54.937Z,67.67
2018-10-11T18:30:23.096Z,68.51
2018-10-11T18:32:51.356Z,68.62
2018-10-11T18:35:19.631Z,69.08
2018-10-11T18:37:47.867Z,69.02
2018-10-11T18:40:16.209Z,69.82
2018-10-11T18:42:44.632Z,69.48
2018-10-11T18:45:12.787Z,70.01
2018-10-11T18:47:41.016Z,70.51
2018-10-11T18:50:09.244Z,69.85
2018-10-11T18:52:37.440Z,70.33
2018-10-11T18:55:05.671Z,70.66
2018-10-11T18:57:33.839Z,70.35
2018-10-11T19:00:02.156Z,70.34
2018-10-11T19:02:30.340Z,70.11
2018-10-11T19:04:58.509Z,70.19
2018-10-11T19:07:29.148Z,71.16
2018-10-11T19:09:57.406Z,70.96
2018-10-11T19:12:25.567Z,71.57
2018-10-11T19:14:53.966Z,71.16
2018-10-11T19:17:22.123Z,71.70
2018-10-11T19:19:50.980Z,71.62
2018-10-11T19:22:19.191Z,71.06
2018-10-11T19:24:47.363Z,71.93
2018-10-11T19:27:15.743Z,72.14
2018-10-11T19:29:43.939Z,71.61
2018-10-11T19:32:12.106Z,71.80
2018-10-11T19:34:42.870Z,71.88
2018-10-11T19:37:12.376Z,71.39
2018-10-11T19:39:40.590Z,71.44
2018-10-11T19:42:13.437Z,71.71
2018-10-11T19:44:41.590Z,70.77
2018-10-11T19:47:09.755Z,71.75
2018-10-11T19:49:37.915Z,71.55
2018-10-11T19:52:06.170Z,71.02
2018-10-11T19:54:34.627Z,71.05
2018-10-11T19:57:03.059Z,71.69
2018-10-11T19:59:31.555Z,71.25
2018-10-11T20:01:59.695Z,71.96
2018-10-11T20:04:27.969Z,71.95
2018-10-11T20:06:56.155Z,71.41
2018-10-11T20:09:24.602Z,71.36
2018-10-11T20:11:52.774Z,71.59
2018-10-11T20:14:20.962Z,71.72
2018-10-11T20:16:49.131Z,71.74
2018-10-11T20:19:17.295Z,71.38
2018-10-11T20:21:52.716Z,71.63
2018-10-11T20:24:22.073Z,72.32
2018-10-11T20:26:50.224Z,72.00
2018-10-11T20:29:18.391Z,72.66
2018-10-11T20:31:46.588Z,71.99
2018-10-11T20:34:14.833Z,72.60
2018-10-11T20:36:42.983Z,71.32
2018-10-11T20:39:11.252Z,72.22
2018-10-11T20:41:39.471Z,71.71
2018-10-11T20:44:07.685Z,71.77
2018-10-11T20:46:35.836Z,72.21
2018-10-11T20:49:04.000Z,71.88
2018-10-11T20:51:32.281Z,71.24
2018-10-11T20:54:00.338Z,71.39
2018-10-11T20:56:28.815Z,71.21
2018-10-11T20:58:56.960Z,72.11
2018-10-11T21:01:25.211Z,71.38
2018-10-11T21:03:53.371Z,71.29
2018-10-11T21:06:21.610Z,71.97
2018-10-11T21:08:49.792Z,72.08
2018-10-11T21:11:17.962Z,72.07
2018-10-11T21:13:46.143Z,71.87
2018-10-11T21:16:14.291Z,71.33
2018-10-11T21:18:42.500Z,71.49
2018-10-11T21:21:10.711Z,71.54
2018-10-11T21:23:38.855Z,72.01
2018-10-11T21:26:07.214Z,71.66
2018-10-11T21:28:35.406Z,71.42
2018-10-11T21:31:03.688Z,71.56
2018-10-11T21:33:32.419Z,72.17
2018-10-11T21:36:00.605Z,71.69
2018-10-11T21:38:28.766Z,71.46
2018-10-11T21:40:57.019Z,71.60
2018-10-11T21:43:25.737Z,71.26
2018-10-11T21:45:53.908Z,71.67
2018-10-11T21:48:22.084Z,71.68
2018-10-11T21:50:50.333Z,71.12
2018-10-11T21:53:19.956Z,72.36
2018-10-11T21:55:48.091Z,71.87
2018-10-11T21:58:16.595Z,72.65
2018-10-11T22:00:50.095Z,71.66
2018-10-11T22:03:18.302Z,72.16
2018-10-11T22:05:46.464Z,71.37
2018-10-11T22:08:15.639Z,72.23
2018-10-11T22:10:45.856Z,71.57
2018-10-11T22:13:14.008Z,72.41
2018-10-11T22:15:42.173Z,72.37
2018-10-11T22:18:10.342Z,72.33
2018-10-11T22:20:38.621Z,72.40
2018-10-11T22:23:06.895Z,72.44
2018-10-11T22:25:35.171Z,71.93
2018-10-11T22:28:04.580Z,72.69
2018-10-11T22:30:32.783Z,72.39
2018-10-11T22:33:00.943Z,71.69
2018-10-11T22:35:29.133Z,71.71
2018-10-11T22:38:01.603Z,71.73
2018-10-11T22:40:29.995Z,72.46
2018-10-11T22:42:58.575Z,72.56
2018-10-11T22:45:27.259Z,73.04
2018-10-11T22:47:56.131Z,72.66
2018-10-11T22:50:25.347Z,72.30
2018-10-11T22:52:53.595Z,72.88
2018-10-11T22:55:21.766Z,73.09
2018-10-11T22:57:49.943Z,72.33
2018-10-11T23:00:18.118Z,72.36
2018-10-11T23:02:46.276Z,72.21
2018-10-11T23:05:14.499Z,71.93
2018-10-11T23:07:42.703Z,72.27
2018-10-11T23:10:10.850Z,72.05
2018-10-11T23:12:39.031Z,72.62
2018-10-11T23:15:07.308Z,72.10
2018-10-11T23:17:35.364Z,71.44
2018-10-11T23:20:03.583Z,72.42
2018-10-11T23:22:31.778Z,71.27
2018-10-11T23:24:59.912Z,72.58
2018-10-11T23:27:28.075Z,72.54
2018-10-11T23:29:56.333Z,71.75
2018-10-11T23:32:24.507Z,72.76
2018-10-11T23:34:52.691Z,72.71
2018-10-11T23:37:20.838Z,72.12
2018-10-11T23:39:48.993Z,72.63
2018-10-11T23:42:17.182Z,72.00
2018-10-11T23:44:47.219Z,72.15
2018-10-11T23:47:15.383Z,72.58
2018-10-11T23:49:43.574Z,72.37
2018-10-11T23:52:11.754Z,73.01
2018-10-11T23:54:39.935Z,73.44
2018-10-11T23:57:08.214Z,73.02
2018-10-11T23:59:36.386Z,72.82
